sensor_id;sensor_type;location;lat;lon;timestamp;temperature;humidity
11536;DHT22;5824;49.336;8.652;2022-09-09T00:00:41;17.60;1.00
11536;DHT22;5824;49.336;8.652;2022-09-09T00:03:24;17.50;1.00
11536;DHT22;5824;49.336;8.652;2022-09-09T00:06:02;17.30;1.00
11536;DHT22;5824;49.336;8.652;2022-09-09T00:08:52;17.10;1.00
11536;DHT22;5824;49.336;8.652;2022-09-09T00:11:26;17.00;1.00
11536;DHT22;5824;49.336;8.652;2022-09-09T00:13:53;17.00;1.00
11536;DHT22;5824;49.336;8.652;2022-09-09T00:16:25;17.00;1.00
11536;DHT22;5824;49.336;8.652;2022-09-09T00:24:45;17.30;1.00
11536;DHT22;5824;49.336;8.652;2022-09-09T00:30:26;17.40;1.00
11536;DHT22;5824;49.336;8.652;2022-09-09T00:33:00;17.40;1.00
11536;DHT22;5824;49.336;8.652;2022-09-09T00:35:33;17.40;1.00
11536;DHT22;5824;49.336;8.652;2022-09-09T00:41:02;17.50;1.00
11536;DHT22;5824;49.336;8.652;2022-09-09T00:43:32;17.50;1.00
11536;DHT22;5824;49.336;8.652;2022-09-09T00:48:46;17.60;1.00
11536;DHT22;5824;49.336;8.652;2022-09-09T00:52:17;17.60;1.00
11536;DHT22;5824;49.336;8.652;2022-09-09T00:54:33;17.60;1.00
11536;DHT22;5824;49.336;8.652;2022-09-09T00:59:55;17.60;1.00
11536;DHT22;5824;49.336;8.652;2022-09-09T01:02:33;17.60;1.00
11536;DHT22;5824;49.336;8.652;2022-09-09T01:05:10;17.60;1.00
11536;DHT22;5824;49.336;8.652;2022-09-09T01:07:37;17.70;1.00
11536;DHT22;5824;49.336;8.652;2022-09-09T01:10:11;17.70;1.00
11536;DHT22;5824;49.336;8.652;2022-09-09T01:12:42;17.70;1.00
11536;DHT22;5824;49.336;8.652;2022-09-09T01:15:10;17.80;1.00
11536;DHT22;5824;49.336;8.652;2022-09-09T01:20:42;17.80;1.00
11536;DHT22;5824;49.336;8.652;2022-09-09T01:26:30;17.80;1.00
11536;DHT22;5824;49.336;8.652;2022-09-09T01:28:58;17.90;1.00
11536;DHT22;5824;49.336;8.652;2022-09-09T01:31:28;17.80;1.00
11536;DHT22;5824;49.336;8.652;2022-09-09T01:33:55;17.90;1.00
11536;DHT22;5824;49.336;8.652;2022-09-09T01:36:31;17.80;1.00
11536;DHT22;5824;49.336;8.652;2022-09-09T01:38:59;17.80;1.00
11536;DHT22;5824;49.336;8.652;2022-09-09T01:41:24;17.90;1.00
11536;DHT22;5824;49.336;8.652;2022-09-09T01:43:50;17.90;1.00
11536;DHT22;5824;49.336;8.652;2022-09-09T01:46:17;17.90;1.00
11536;DHT22;5824;49.336;8.652;2022-09-09T01:48:46;17.80;1.00
11536;DHT22;5824;49.336;8.652;2022-09-09T01:51:12;17.70;1.00
11536;DHT22;5824;49.336;8.652;2022-09-09T01:53:39;17.70;1.00
11536;DHT22;5824;49.336;8.652;2022-09-09T01:56:40;17.60;1.00
11536;DHT22;5824;49.336;8.652;2022-09-09T02:04:38;17.50;1.00
11536;DHT22;5824;49.336;8.652;2022-09-09T02:07:10;17.50;1.00
11536;DHT22;5824;49.336;8.652;2022-09-09T02:09:42;17.50;1.00
11536;DHT22;5824;49.336;8.652;2022-09-09T02:12:14;17.50;1.00
11536;DHT22;5824;49.336;8.652;2022-09-09T02:14:48;17.50;1.00
11536;DHT22;5824;49.336;8.652;2022-09-09T02:17:19;17.50;1.00
11536;DHT22;5824;49.336;8.652;2022-09-09T02:19:51;17.50;1.00
11536;DHT22;5824;49.336;8.652;2022-09-09T02:22:20;17.50;1.00
11536;DHT22;5824;49.336;8.652;2022-09-09T02:24:47;17.50;1.00
11536;DHT22;5824;49.336;8.652;2022-09-09T02:27:16;17.60;1.00
11536;DHT22;5824;49.336;8.652;2022-09-09T02:29:43;17.60;1.00
11536;DHT22;5824;49.336;8.652;2022-09-09T02:32:22;17.60;1.00
11536;DHT22;5824;49.336;8.652;2022-09-09T02:34:55;17.60;1.00
11536;DHT22;5824;49.336;8.652;2022-09-09T02:37:24;17.50;1.00
11536;DHT22;5824;49.336;8.652;2022-09-09T02:39:54;17.50;1.00
11536;DHT22;5824;49.336;8.652;2022-09-09T02:42:19;17.40;1.00
11536;DHT22;5824;49.336;8.652;2022-09-09T02:44:45;17.40;1.00
11536;DHT22;5824;49.336;8.652;2022-09-09T02:47:15;17.40;1.00
11536;DHT22;5824;49.336;8.652;2022-09-09T02:49:51;17.40;1.00
11536;DHT22;5824;49.336;8.652;2022-09-09T02:55:48;17.30;1.00
11536;DHT22;5824;49.336;8.652;2022-09-09T02:58:17;17.20;1.00
11536;DHT22;5824;49.336;8.652;2022-09-09T03:00:46;17.20;1.00
11536;DHT22;5824;49.336;8.652;2022-09-09T03:03:12;17.20;1.00
11536;DHT22;5824;49.336;8.652;2022-09-09T03:05:38;17.20;1.00
11536;DHT22;5824;49.336;8.652;2022-09-09T03:08:04;17.20;1.00
11536;DHT22;5824;49.336;8.652;2022-09-09T03:10:31;17.10;1.00
11536;DHT22;5824;49.336;8.652;2022-09-09T03:12:57;17.10;1.00
11536;DHT22;5824;49.336;8.652;2022-09-09T03:15:22;17.10;1.00
11536;DHT22;5824;49.336;8.652;2022-09-09T03:17:48;17.10;1.00
11536;DHT22;5824;49.336;8.652;2022-09-09T03:20:13;17.00;1.00
11536;DHT22;5824;49.336;8.652;2022-09-09T03:22:39;17.00;1.00
11536;DHT22;5824;49.336;8.652;2022-09-09T03:25:05;17.00;1.00
11536;DHT22;5824;49.336;8.652;2022-09-09T03:27:31;16.90;1.00
11536;DHT22;5824;49.336;8.652;2022-09-09T03:29:57;16.90;1.40
11536;DHT22;5824;49.336;8.652;2022-09-09T03:32:23;16.80;2.40
11536;DHT22;5824;49.336;8.652;2022-09-09T03:34:51;16.80;2.20
11536;DHT22;5824;49.336;8.652;2022-09-09T03:37:17;16.70;3.70
11536;DHT22;5824;49.336;8.652;2022-09-09T03:39:43;16.80;3.90
11536;DHT22;5824;49.336;8.652;2022-09-09T03:42:11;16.80;3.90
11536;DHT22;5824;49.336;8.652;2022-09-09T03:44:39;16.80;3.90
11536;DHT22;5824;49.336;8.652;2022-09-09T03:47:05;16.80;3.10
11536;DHT22;5824;49.336;8.652;2022-09-09T03:49:31;16.80;3.60
11536;DHT22;5824;49.336;8.652;2022-09-09T03:51:57;16.80;3.70
11536;DHT22;5824;49.336;8.652;2022-09-09T03:54:24;16.90;3.20
11536;DHT22;5824;49.336;8.652;2022-09-09T03:56:50;16.90;2.20
11536;DHT22;5824;49.336;8.652;2022-09-09T03:59:16;17.00;2.00
11536;DHT22;5824;49.336;8.652;2022-09-09T04:01:41;17.00;1.80
11536;DHT22;5824;49.336;8.652;2022-09-09T04:04:07;17.00;1.60
11536;DHT22;5824;49.336;8.652;2022-09-09T04:06:34;17.00;1.00
11536;DHT22;5824;49.336;8.652;2022-09-09T04:09:00;17.00;1.00
11536;DHT22;5824;49.336;8.652;2022-09-09T04:11:27;17.10;1.00
11536;DHT22;5824;49.336;8.652;2022-09-09T04:13:53;17.10;1.00
11536;DHT22;5824;49.336;8.652;2022-09-09T04:16:18;17.10;1.00
11536;DHT22;5824;49.336;8.652;2022-09-09T04:18:45;17.00;1.00
11536;DHT22;5824;49.336;8.652;2022-09-09T04:21:11;17.20;1.00
11536;DHT22;5824;49.336;8.652;2022-09-09T04:23:38;17.20;1.00
11536;DHT22;5824;49.336;8.652;2022-09-09T04:26:04;17.20;1.00
11536;DHT22;5824;49.336;8.652;2022-09-09T04:28:32;17.10;1.00
11536;DHT22;5824;49.336;8.652;2022-09-09T04:31:07;17.20;1.00
11536;DHT22;5824;49.336;8.652;2022-09-09T04:33:34;17.20;1.00
11536;DHT22;5824;49.336;8.652;2022-09-09T04:36:00;17.20;1.00
11536;DHT22;5824;49.336;8.652;2022-09-09T04:38:26;17.20;1.00
11536;DHT22;5824;49.336;8.652;2022-09-09T04:40:52;17.20;1.00
11536;DHT22;5824;49.336;8.652;2022-09-09T04:43:19;17.20;1.00
11536;DHT22;5824;49.336;8.652;2022-09-09T04:45:47;17.10;1.30
11536;DHT22;5824;49.336;8.652;2022-09-09T04:48:13;17.10;1.80
11536;DHT22;5824;49.336;8.652;2022-09-09T04:50:39;17.00;3.40
11536;DHT22;5824;49.336;8.652;2022-09-09T04:53:06;17.10;2.80
11536;DHT22;5824;49.336;8.652;2022-09-09T04:55:32;17.00;2.90
11536;DHT22;5824;49.336;8.652;2022-09-09T04:58:06;17.10;2.90
11536;DHT22;5824;49.336;8.652;2022-09-09T05:00:33;17.10;2.60
11536;DHT22;5824;49.336;8.652;2022-09-09T05:03:05;17.00;2.20
11536;DHT22;5824;49.336;8.652;2022-09-09T05:05:32;17.00;2.00
11536;DHT22;5824;49.336;8.652;2022-09-09T05:08:07;17.20;2.60
11536;DHT22;5824;49.336;8.652;2022-09-09T05:10:37;17.10;3.00
11536;DHT22;5824;49.336;8.652;2022-09-09T05:13:03;17.10;1.90
11536;DHT22;5824;49.336;8.652;2022-09-09T05:15:30;17.10;2.70
11536;DHT22;5824;49.336;8.652;2022-09-09T05:18:00;17.10;2.40
11536;DHT22;5824;49.336;8.652;2022-09-09T05:20:26;17.20;4.00
11536;DHT22;5824;49.336;8.652;2022-09-09T05:22:56;17.20;3.70
11536;DHT22;5824;49.336;8.652;2022-09-09T05:25:22;17.20;2.00
11536;DHT22;5824;49.336;8.652;2022-09-09T05:27:49;17.20;3.50
11536;DHT22;5824;49.336;8.652;2022-09-09T05:30:15;17.20;4.10
11536;DHT22;5824;49.336;8.652;2022-09-09T05:32:41;17.20;2.60
11536;DHT22;5824;49.336;8.652;2022-09-09T05:35:06;17.30;3.40
11536;DHT22;5824;49.336;8.652;2022-09-09T05:37:32;17.40;2.30
11536;DHT22;5824;49.336;8.652;2022-09-09T05:39:58;17.40;1.80
11536;DHT22;5824;49.336;8.652;2022-09-09T05:42:23;17.50;1.00
11536;DHT22;5824;49.336;8.652;2022-09-09T05:44:49;17.60;1.00
11536;DHT22;5824;49.336;8.652;2022-09-09T05:47:16;17.80;1.00
11536;DHT22;5824;49.336;8.652;2022-09-09T05:49:42;17.60;1.00
11536;DHT22;5824;49.336;8.652;2022-09-09T05:52:07;17.60;1.00
11536;DHT22;5824;49.336;8.652;2022-09-09T05:54:35;17.60;1.00
11536;DHT22;5824;49.336;8.652;2022-09-09T05:57:00;17.60;1.00
11536;DHT22;5824;49.336;8.652;2022-09-09T05:59:26;17.70;1.00
11536;DHT22;5824;49.336;8.652;2022-09-09T06:01:51;17.80;1.00
11536;DHT22;5824;49.336;8.652;2022-09-09T06:04:17;18.00;1.00
11536;DHT22;5824;49.336;8.652;2022-09-09T06:06:43;18.20;1.00
11536;DHT22;5824;49.336;8.652;2022-09-09T06:09:09;18.30;1.00
11536;DHT22;5824;49.336;8.652;2022-09-09T06:11:37;18.30;1.00
11536;DHT22;5824;49.336;8.652;2022-09-09T06:14:03;18.40;1.00
11536;DHT22;5824;49.336;8.652;2022-09-09T06:16:30;18.40;1.00
11536;DHT22;5824;49.336;8.652;2022-09-09T06:18:58;18.50;1.00
11536;DHT22;5824;49.336;8.652;2022-09-09T06:21:28;18.60;1.00
11536;DHT22;5824;49.336;8.652;2022-09-09T06:23:56;18.70;1.00
11536;DHT22;5824;49.336;8.652;2022-09-09T06:26:23;18.90;1.00
11536;DHT22;5824;49.336;8.652;2022-09-09T06:28:51;19.00;1.00
11536;DHT22;5824;49.336;8.652;2022-09-09T06:31:19;19.30;1.00
11536;DHT22;5824;49.336;8.652;2022-09-09T06:33:47;19.70;1.00
11536;DHT22;5824;49.336;8.652;2022-09-09T06:36:16;20.30;1.00
11536;DHT22;5824;49.336;8.652;2022-09-09T06:38:43;20.10;1.00
11536;DHT22;5824;49.336;8.652;2022-09-09T06:41:10;19.90;1.00
11536;DHT22;5824;49.336;8.652;2022-09-09T06:43:36;20.20;1.00
11536;DHT22;5824;49.336;8.652;2022-09-09T06:48:35;20.50;1.00
11536;DHT22;5824;49.336;8.652;2022-09-09T06:51:12;20.40;1.00
11536;DHT22;5824;49.336;8.652;2022-09-09T06:53:40;20.50;1.00
11536;DHT22;5824;49.336;8.652;2022-09-09T06:56:26;20.40;1.00
11536;DHT22;5824;49.336;8.652;2022-09-09T06:58:54;20.10;1.00
11536;DHT22;5824;49.336;8.652;2022-09-09T07:01:24;20.20;1.00
11536;DHT22;5824;49.336;8.652;2022-09-09T07:03:52;20.10;1.00
11536;DHT22;5824;49.336;8.652;2022-09-09T07:06:21;20.10;1.00
11536;DHT22;5824;49.336;8.652;2022-09-09T07:08:54;20.00;1.00
11536;DHT22;5824;49.336;8.652;2022-09-09T07:11:22;19.80;1.00
11536;DHT22;5824;49.336;8.652;2022-09-09T07:13:48;19.80;1.00
11536;DHT22;5824;49.336;8.652;2022-09-09T07:16:17;19.70;1.00
11536;DHT22;5824;49.336;8.652;2022-09-09T07:18:43;20.00;1.00
11536;DHT22;5824;49.336;8.652;2022-09-09T07:21:10;20.80;1.00
11536;DHT22;5824;49.336;8.652;2022-09-09T07:23:37;21.70;1.00
11536;DHT22;5824;49.336;8.652;2022-09-09T07:26:08;22.70;1.00
11536;DHT22;5824;49.336;8.652;2022-09-09T07:28:34;23.60;1.00
11536;DHT22;5824;49.336;8.652;2022-09-09T07:31:01;24.00;1.00
11536;DHT22;5824;49.336;8.652;2022-09-09T07:33:31;24.80;1.00
11536;DHT22;5824;49.336;8.652;2022-09-09T07:36:32;24.90;1.00
11536;DHT22;5824;49.336;8.652;2022-09-09T07:39:00;25.30;1.00
11536;DHT22;5824;49.336;8.652;2022-09-09T07:41:32;26.20;1.00
11536;DHT22;5824;49.336;8.652;2022-09-09T07:43:59;26.70;1.00
11536;DHT22;5824;49.336;8.652;2022-09-09T07:46:26;26.80;1.00
11536;DHT22;5824;49.336;8.652;2022-09-09T07:48:53;26.90;1.00
11536;DHT22;5824;49.336;8.652;2022-09-09T07:51:24;26.20;1.00
11536;DHT22;5824;49.336;8.652;2022-09-09T07:53:55;25.90;1.00
11536;DHT22;5824;49.336;8.652;2022-09-09T07:56:22;26.30;1.00
11536;DHT22;5824;49.336;8.652;2022-09-09T07:58:49;26.70;1.00
11536;DHT22;5824;49.336;8.652;2022-09-09T08:01:22;25.80;1.00
11536;DHT22;5824;49.336;8.652;2022-09-09T08:03:53;25.50;1.00
11536;DHT22;5824;49.336;8.652;2022-09-09T08:06:19;26.10;1.00
11536;DHT22;5824;49.336;8.652;2022-09-09T08:08:45;27.20;1.00
11536;DHT22;5824;49.336;8.652;2022-09-09T08:11:15;28.10;1.00
11536;DHT22;5824;49.336;8.652;2022-09-09T08:13:43;29.00;1.00
11536;DHT22;5824;49.336;8.652;2022-09-09T08:16:23;28.00;1.00
11536;DHT22;5824;49.336;8.652;2022-09-09T08:18:49;26.40;1.00
11536;DHT22;5824;49.336;8.652;2022-09-09T08:21:19;25.70;1.00
11536;DHT22;5824;49.336;8.652;2022-09-09T08:23:46;25.00;1.00
11536;DHT22;5824;49.336;8.652;2022-09-09T08:26:17;25.20;1.00
11536;DHT22;5824;49.336;8.652;2022-09-09T08:28:43;25.40;1.00
11536;DHT22;5824;49.336;8.652;2022-09-09T08:31:15;26.40;1.00
11536;DHT22;5824;49.336;8.652;2022-09-09T08:33:42;26.90;1.00
11536;DHT22;5824;49.336;8.652;2022-09-09T08:36:13;26.20;1.00
11536;DHT22;5824;49.336;8.652;2022-09-09T08:38:41;25.10;1.00
11536;DHT22;5824;49.336;8.652;2022-09-09T08:43:58;22.90;1.00
11536;DHT22;5824;49.336;8.652;2022-09-09T08:50:00;22.00;1.00
11536;DHT22;5824;49.336;8.652;2022-09-09T08:52:36;21.60;1.00
11536;DHT22;5824;49.336;8.652;2022-09-09T08:57:41;21.20;1.00
11536;DHT22;5824;49.336;8.652;2022-09-09T09:00:10;21.40;1.00
11536;DHT22;5824;49.336;8.652;2022-09-09T09:10:33;22.30;1.00
11536;DHT22;5824;49.336;8.652;2022-09-09T09:13:01;22.60;1.00
11536;DHT22;5824;49.336;8.652;2022-09-09T09:15:32;22.90;1.00
11536;DHT22;5824;49.336;8.652;2022-09-09T09:18:02;23.20;1.00
11536;DHT22;5824;49.336;8.652;2022-09-09T09:23:13;23.40;1.00
11536;DHT22;5824;49.336;8.652;2022-09-09T09:25:42;23.70;1.00
11536;DHT22;5824;49.336;8.652;2022-09-09T09:28:16;25.30;1.00
11536;DHT22;5824;49.336;8.652;2022-09-09T09:36:09;29.00;1.00
11536;DHT22;5824;49.336;8.652;2022-09-09T09:38:36;30.20;1.00
11536;DHT22;5824;49.336;8.652;2022-09-09T09:41:02;30.00;1.00
11536;DHT22;5824;49.336;8.652;2022-09-09T09:45:58;30.30;1.00
11536;DHT22;5824;49.336;8.652;2022-09-09T09:48:25;30.20;1.00
11536;DHT22;5824;49.336;8.652;2022-09-09T09:51:11;30.20;1.00
11536;DHT22;5824;49.336;8.652;2022-09-09T09:53:40;30.70;1.00
11536;DHT22;5824;49.336;8.652;2022-09-09T09:56:11;30.60;1.00
11536;DHT22;5824;49.336;8.652;2022-09-09T10:01:26;27.30;1.00
11536;DHT22;5824;49.336;8.652;2022-09-09T10:06:38;26.30;1.00
11536;DHT22;5824;49.336;8.652;2022-09-09T10:09:29;26.40;1.00
11536;DHT22;5824;49.336;8.652;2022-09-09T10:21:11;24.40;1.00
11536;DHT22;5824;49.336;8.652;2022-09-09T10:26:37;24.10;1.00
11536;DHT22;5824;49.336;8.652;2022-09-09T10:34:55;25.80;1.00
11536;DHT22;5824;49.336;8.652;2022-09-09T10:38:16;25.70;1.00
11536;DHT22;5824;49.336;8.652;2022-09-09T10:57:44;34.70;1.00
11536;DHT22;5824;49.336;8.652;2022-09-09T11:00:22;36.30;1.00
11536;DHT22;5824;49.336;8.652;2022-09-09T11:02:52;36.00;1.00
11536;DHT22;5824;49.336;8.652;2022-09-09T11:08:23;32.90;1.00
11536;DHT22;5824;49.336;8.652;2022-09-09T11:16:34;32.30;1.00
11536;DHT22;5824;49.336;8.652;2022-09-09T11:19:09;34.20;1.00
11536;DHT22;5824;49.336;8.652;2022-09-09T11:21:47;33.80;1.00
11536;DHT22;5824;49.336;8.652;2022-09-09T11:24:29;33.30;1.00
11536;DHT22;5824;49.336;8.652;2022-09-09T11:27:18;32.40;1.00
11536;DHT22;5824;49.336;8.652;2022-09-09T11:37:48;33.40;1.00
11536;DHT22;5824;49.336;8.652;2022-09-09T11:40:21;32.80;1.00
11536;DHT22;5824;49.336;8.652;2022-09-09T11:42:48;33.20;1.00
11536;DHT22;5824;49.336;8.652;2022-09-09T11:45:24;33.80;1.00
11536;DHT22;5824;49.336;8.652;2022-09-09T11:47:58;34.00;1.00
11536;DHT22;5824;49.336;8.652;2022-09-09T11:52:50;32.70;1.00
11536;DHT22;5824;49.336;8.652;2022-09-09T11:55:33;33.10;1.00
11536;DHT22;5824;49.336;8.652;2022-09-09T11:58:05;32.60;1.00
11536;DHT22;5824;49.336;8.652;2022-09-09T12:00:32;33.40;1.00
11536;DHT22;5824;49.336;8.652;2022-09-09T12:02:58;32.80;1.00
11536;DHT22;5824;49.336;8.652;2022-09-09T12:05:41;33.00;1.00
11536;DHT22;5824;49.336;8.652;2022-09-09T12:08:09;33.80;1.00
11536;DHT22;5824;49.336;8.652;2022-09-09T12:10:39;34.00;1.00
11536;DHT22;5824;49.336;8.652;2022-09-09T12:13:25;34.60;1.00
11536;DHT22;5824;49.336;8.652;2022-09-09T12:16:00;33.60;1.00
11536;DHT22;5824;49.336;8.652;2022-09-09T12:18:38;31.60;1.00
11536;DHT22;5824;49.336;8.652;2022-09-09T12:21:34;29.20;1.00
11536;DHT22;5824;49.336;8.652;2022-09-09T12:24:09;28.10;1.00
11536;DHT22;5824;49.336;8.652;2022-09-09T12:26:43;27.60;1.00
11536;DHT22;5824;49.336;8.652;2022-09-09T12:31:46;26.30;1.00
11536;DHT22;5824;49.336;8.652;2022-09-09T12:34:23;25.20;1.00
11536;DHT22;5824;49.336;8.652;2022-09-09T12:36:57;24.60;1.00
11536;DHT22;5824;49.336;8.652;2022-09-09T12:39:36;24.20;1.00
11536;DHT22;5824;49.336;8.652;2022-09-09T12:42:02;23.90;1.00
11536;DHT22;5824;49.336;8.652;2022-09-09T12:46:57;23.70;1.00
11536;DHT22;5824;49.336;8.652;2022-09-09T12:49:26;24.10;1.00
11536;DHT22;5824;49.336;8.652;2022-09-09T12:51:53;25.30;1.00
11536;DHT22;5824;49.336;8.652;2022-09-09T12:54:20;25.60;1.00
11536;DHT22;5824;49.336;8.652;2022-09-09T12:56:47;26.20;1.00
11536;DHT22;5824;49.336;8.652;2022-09-09T12:59:25;26.70;1.00
11536;DHT22;5824;49.336;8.652;2022-09-09T13:01:58;26.20;1.00
11536;DHT22;5824;49.336;8.652;2022-09-09T13:04:23;26.00;1.00
11536;DHT22;5824;49.336;8.652;2022-09-09T13:06:49;25.30;1.00
11536;DHT22;5824;49.336;8.652;2022-09-09T13:09:15;24.60;1.00
11536;DHT22;5824;49.336;8.652;2022-09-09T13:11:48;24.10;1.00
11536;DHT22;5824;49.336;8.652;2022-09-09T13:14:36;23.60;1.00
11536;DHT22;5824;49.336;8.652;2022-09-09T13:17:04;23.20;1.00
11536;DHT22;5824;49.336;8.652;2022-09-09T13:19:37;23.30;1.00
11536;DHT22;5824;49.336;8.652;2022-09-09T13:22:20;22.90;1.00
11536;DHT22;5824;49.336;8.652;2022-09-09T13:24:46;22.70;1.00
11536;DHT22;5824;49.336;8.652;2022-09-09T13:27:31;22.30;1.00
11536;DHT22;5824;49.336;8.652;2022-09-09T13:29:57;22.10;1.00
11536;DHT22;5824;49.336;8.652;2022-09-09T13:32:24;21.30;1.00
11536;DHT22;5824;49.336;8.652;2022-09-09T13:34:58;20.00;1.00
11536;DHT22;5824;49.336;8.652;2022-09-09T13:37:38;19.00;1.00
11536;DHT22;5824;49.336;8.652;2022-09-09T13:40:17;18.40;1.00
11536;DHT22;5824;49.336;8.652;2022-09-09T13:42:44;18.20;1.00
11536;DHT22;5824;49.336;8.652;2022-09-09T13:45:22;17.90;1.00
11536;DHT22;5824;49.336;8.652;2022-09-09T13:47:49;17.80;1.00
11536;DHT22;5824;49.336;8.652;2022-09-09T13:50:28;17.60;1.00
11536;DHT22;5824;49.336;8.652;2022-09-09T13:52:56;17.70;1.00
11536;DHT22;5824;49.336;8.652;2022-09-09T13:55:27;17.80;1.00
11536;DHT22;5824;49.336;8.652;2022-09-09T13:57:58;18.00;1.00
11536;DHT22;5824;49.336;8.652;2022-09-09T14:00:26;18.40;1.00
11536;DHT22;5824;49.336;8.652;2022-09-09T14:02:52;18.90;1.00
11536;DHT22;5824;49.336;8.652;2022-09-09T14:05:18;19.60;1.00
11536;DHT22;5824;49.336;8.652;2022-09-09T14:07:44;20.40;1.00
11536;DHT22;5824;49.336;8.652;2022-09-09T14:10:12;21.50;1.00
11536;DHT22;5824;49.336;8.652;2022-09-09T14:12:37;22.40;1.00
11536;DHT22;5824;49.336;8.652;2022-09-09T14:15:05;22.40;1.00
11536;DHT22;5824;49.336;8.652;2022-09-09T14:17:32;22.90;1.00
11536;DHT22;5824;49.336;8.652;2022-09-09T14:19:58;25.20;1.00
11536;DHT22;5824;49.336;8.652;2022-09-09T14:22:24;27.80;1.00
11536;DHT22;5824;49.336;8.652;2022-09-09T14:24:50;29.40;1.00
11536;DHT22;5824;49.336;8.652;2022-09-09T14:27:16;30.30;1.00
11536;DHT22;5824;49.336;8.652;2022-09-09T14:29:42;31.10;1.00
11536;DHT22;5824;49.336;8.652;2022-09-09T14:32:09;31.80;1.00
11536;DHT22;5824;49.336;8.652;2022-09-09T14:34:35;31.60;1.00
11536;DHT22;5824;49.336;8.652;2022-09-09T14:37:01;31.70;1.00
11536;DHT22;5824;49.336;8.652;2022-09-09T14:39:26;32.20;1.00
11536;DHT22;5824;49.336;8.652;2022-09-09T14:41:52;32.80;1.00
11536;DHT22;5824;49.336;8.652;2022-09-09T14:44:17;32.80;1.00
11536;DHT22;5824;49.336;8.652;2022-09-09T14:46:44;32.40;1.00
11536;DHT22;5824;49.336;8.652;2022-09-09T14:49:09;32.90;1.00
11536;DHT22;5824;49.336;8.652;2022-09-09T14:51:38;33.10;1.00
11536;DHT22;5824;49.336;8.652;2022-09-09T14:54:04;32.40;1.00
11536;DHT22;5824;49.336;8.652;2022-09-09T14:56:32;30.20;1.00
11536;DHT22;5824;49.336;8.652;2022-09-09T14:59:00;27.70;1.00
11536;DHT22;5824;49.336;8.652;2022-09-09T15:01:26;25.90;1.00
11536;DHT22;5824;49.336;8.652;2022-09-09T15:03:59;25.10;1.00
11536;DHT22;5824;49.336;8.652;2022-09-09T15:06:27;24.10;1.00
11536;DHT22;5824;49.336;8.652;2022-09-09T15:08:54;23.50;1.00
11536;DHT22;5824;49.336;8.652;2022-09-09T15:11:23;23.20;1.00
11536;DHT22;5824;49.336;8.652;2022-09-09T15:13:51;22.80;1.00
11536;DHT22;5824;49.336;8.652;2022-09-09T15:16:19;22.50;1.00
11536;DHT22;5824;49.336;8.652;2022-09-09T15:18:45;22.20;1.00
11536;DHT22;5824;49.336;8.652;2022-09-09T15:21:16;22.00;1.00
11536;DHT22;5824;49.336;8.652;2022-09-09T15:23:43;22.10;1.00
11536;DHT22;5824;49.336;8.652;2022-09-09T15:26:09;22.20;1.00
11536;DHT22;5824;49.336;8.652;2022-09-09T15:28:37;22.20;1.00
11536;DHT22;5824;49.336;8.652;2022-09-09T15:31:09;22.10;1.00
11536;DHT22;5824;49.336;8.652;2022-09-09T15:33:36;22.00;1.00
11536;DHT22;5824;49.336;8.652;2022-09-09T15:36:24;21.90;1.00
11536;DHT22;5824;49.336;8.652;2022-09-09T15:38:51;21.90;1.00
11536;DHT22;5824;49.336;8.652;2022-09-09T15:41:19;21.70;1.00
11536;DHT22;5824;49.336;8.652;2022-09-09T15:43:46;21.60;1.00
11536;DHT22;5824;49.336;8.652;2022-09-09T15:46:23;21.60;1.00
11536;DHT22;5824;49.336;8.652;2022-09-09T15:48:49;21.50;1.00
11536;DHT22;5824;49.336;8.652;2022-09-09T15:51:16;21.20;1.00
11536;DHT22;5824;49.336;8.652;2022-09-09T15:53:41;21.80;1.00
11536;DHT22;5824;49.336;8.652;2022-09-09T15:56:07;22.30;1.00
11536;DHT22;5824;49.336;8.652;2022-09-09T15:58:34;22.80;1.00
11536;DHT22;5824;49.336;8.652;2022-09-09T16:01:07;23.20;1.00
11536;DHT22;5824;49.336;8.652;2022-09-09T16:03:39;23.10;1.00
11536;DHT22;5824;49.336;8.652;2022-09-09T16:06:05;22.20;1.00
11536;DHT22;5824;49.336;8.652;2022-09-09T16:08:35;22.00;1.00
11536;DHT22;5824;49.336;8.652;2022-09-09T16:11:09;22.70;1.00
11536;DHT22;5824;49.336;8.652;2022-09-09T16:13:39;23.80;1.00
11536;DHT22;5824;49.336;8.652;2022-09-09T16:16:06;23.60;1.00
11536;DHT22;5824;49.336;8.652;2022-09-09T16:18:52;22.80;1.00
11536;DHT22;5824;49.336;8.652;2022-09-09T16:21:25;21.90;1.00
11536;DHT22;5824;49.336;8.652;2022-09-09T16:23:52;21.40;1.00
11536;DHT22;5824;49.336;8.652;2022-09-09T16:26:20;21.00;1.00
11536;DHT22;5824;49.336;8.652;2022-09-09T16:28:46;20.80;1.00
11536;DHT22;5824;49.336;8.652;2022-09-09T16:31:18;20.70;1.00
11536;DHT22;5824;49.336;8.652;2022-09-09T16:33:44;20.70;1.00
11536;DHT22;5824;49.336;8.652;2022-09-09T16:36:13;20.70;1.00
11536;DHT22;5824;49.336;8.652;2022-09-09T16:38:40;20.60;1.00
11536;DHT22;5824;49.336;8.652;2022-09-09T16:41:07;20.50;1.00
11536;DHT22;5824;49.336;8.652;2022-09-09T16:43:34;20.40;1.00
11536;DHT22;5824;49.336;8.652;2022-09-09T16:46:01;20.30;1.00
11536;DHT22;5824;49.336;8.652;2022-09-09T16:48:31;20.30;1.00
11536;DHT22;5824;49.336;8.652;2022-09-09T16:51:06;20.10;1.00
11536;DHT22;5824;49.336;8.652;2022-09-09T16:53:32;20.00;1.00
11536;DHT22;5824;49.336;8.652;2022-09-09T16:56:04;19.90;1.00
11536;DHT22;5824;49.336;8.652;2022-09-09T16:58:30;19.90;1.00
11536;DHT22;5824;49.336;8.652;2022-09-09T17:00:59;19.80;1.00
11536;DHT22;5824;49.336;8.652;2022-09-09T17:03:25;19.70;1.00
11536;DHT22;5824;49.336;8.652;2022-09-09T17:05:51;19.70;1.00
11536;DHT22;5824;49.336;8.652;2022-09-09T17:08:16;19.70;1.00
11536;DHT22;5824;49.336;8.652;2022-09-09T17:10:42;19.50;1.00
11536;DHT22;5824;49.336;8.652;2022-09-09T17:13:08;19.50;1.00
11536;DHT22;5824;49.336;8.652;2022-09-09T17:15:41;19.50;1.00
11536;DHT22;5824;49.336;8.652;2022-09-09T17:18:09;19.40;1.00
11536;DHT22;5824;49.336;8.652;2022-09-09T17:20:38;19.30;1.00
11536;DHT22;5824;49.336;8.652;2022-09-09T17:23:08;19.20;1.00
11536;DHT22;5824;49.336;8.652;2022-09-09T17:25:35;19.00;1.00
11536;DHT22;5824;49.336;8.652;2022-09-09T17:28:01;18.90;1.00
11536;DHT22;5824;49.336;8.652;2022-09-09T17:30:30;18.90;1.00
11536;DHT22;5824;49.336;8.652;2022-09-09T17:32:56;18.80;1.00
11536;DHT22;5824;49.336;8.652;2022-09-09T17:35:22;18.60;1.00
11536;DHT22;5824;49.336;8.652;2022-09-09T17:37:47;18.50;1.00
11536;DHT22;5824;49.336;8.652;2022-09-09T17:40:13;18.40;1.00
11536;DHT22;5824;49.336;8.652;2022-09-09T17:42:38;18.30;1.00
11536;DHT22;5824;49.336;8.652;2022-09-09T17:45:06;18.30;1.00
11536;DHT22;5824;49.336;8.652;2022-09-09T17:47:31;18.30;1.00
11536;DHT22;5824;49.336;8.652;2022-09-09T17:49:57;18.30;1.00
11536;DHT22;5824;49.336;8.652;2022-09-09T17:52:23;18.20;1.00
11536;DHT22;5824;49.336;8.652;2022-09-09T17:54:48;18.20;1.00
11536;DHT22;5824;49.336;8.652;2022-09-09T17:57:15;18.10;1.00
11536;DHT22;5824;49.336;8.652;2022-09-09T17:59:42;18.00;1.00
11536;DHT22;5824;49.336;8.652;2022-09-09T18:02:11;17.90;1.00
11536;DHT22;5824;49.336;8.652;2022-09-09T18:04:36;17.80;1.00
11536;DHT22;5824;49.336;8.652;2022-09-09T18:07:03;17.70;1.00
11536;DHT22;5824;49.336;8.652;2022-09-09T18:09:30;17.70;1.00
11536;DHT22;5824;49.336;8.652;2022-09-09T18:11:58;17.60;1.00
11536;DHT22;5824;49.336;8.652;2022-09-09T18:14:29;17.60;1.00
11536;DHT22;5824;49.336;8.652;2022-09-09T18:16:56;17.50;1.00
11536;DHT22;5824;49.336;8.652;2022-09-09T18:19:24;17.50;1.00
11536;DHT22;5824;49.336;8.652;2022-09-09T18:21:50;17.40;1.00
11536;DHT22;5824;49.336;8.652;2022-09-09T18:24:18;17.50;1.00